createdAt,value
2023-05-22T00:02:27.268Z,96104.09
2023-05-22T00:04:58.785Z,96142.84
2023-05-22T00:07:27.531Z,96145.78
2023-05-22T00:09:57.160Z,96168.72
2023-05-22T00:12:25.633Z,96107.66
2023-05-22T00:14:54.008Z,96189.53
2023-05-22T00:17:22.425Z,96162.19
2023-05-22T00:19:51.532Z,96126.28
2023-05-22T00:22:19.734Z,96174.03
2023-05-22T00:24:47.996Z,96159.75
2023-05-22T00:27:17.673Z,96185.91
2023-05-22T00:29:47.359Z,96116.13
2023-05-22T00:32:15.604Z,96156.91
2023-05-22T00:34:43.900Z,96135.31
2023-05-22T00:37:12.171Z,96120.19
2023-05-22T00:39:40.556Z,96138.16
2023-05-22T00:42:08.930Z,96140.63
2023-05-22T00:44:38.912Z,96103.47
2023-05-22T00:47:08.123Z,96153.72
2023-05-22T00:49:36.764Z,96187.13
2023-05-22T00:52:05.717Z,96171.63
2023-05-22T00:54:34.392Z,96093.91
2023-05-22T00:57:03.658Z,96063.13
2023-05-22T00:59:32.937Z,96122.69
2023-05-22T01:02:04.277Z,96141.19
2023-05-22T01:04:33.446Z,96134.03
2023-05-22T01:07:02.958Z,96127.06
2023-05-22T01:09:31.841Z,96101.63
2023-05-22T01:12:07.376Z,96118.09
2023-05-22T01:14:43.498Z,96174.56
2023-05-22T01:17:25.149Z,96137.22
2023-05-22T01:20:10.277Z,96160.84
2023-05-22T01:23:37.293Z,96138.78
2023-05-22T01:26:23.760Z,96154.72
2023-05-22T01:29:18.260Z,96174.66
2023-05-22T01:31:50.828Z,96210.13
2023-05-22T01:34:21.108Z,96151.44
2023-05-22T01:36:52.106Z,96136.09
2023-05-22T01:39:20.959Z,96113.06
2023-05-22T01:41:49.441Z,96182.34
2023-05-22T01:44:17.798Z,96176.66
2023-05-22T01:46:47.580Z,96187.25
2023-05-22T01:49:16.516Z,96172.31
2023-05-22T01:51:55.142Z,96140.34
2023-05-22T01:54:32.425Z,96152.94
2023-05-22T01:57:08.973Z,96183.06
2023-05-22T01:59:45.514Z,96151.84
2023-05-22T02:02:18.761Z,96186.78
2023-05-22T02:04:53.231Z,96154.69
2023-05-22T02:07:24.958Z,96117.72
2023-05-22T02:09:57.064Z,96185.94
2023-05-22T02:12:26.190Z,96154.25
2023-05-22T02:14:55.124Z,96191.22
2023-05-22T02:17:26.112Z,96221.72
2023-05-22T02:19:54.462Z,96181.91
2023-05-22T02:22:22.774Z,96156.03
2023-05-22T02:24:51.533Z,96189.00
2023-05-22T02:27:19.846Z,96195.06
2023-05-22T02:29:57.817Z,96176.31
2023-05-22T02:32:31.668Z,96161.53
2023-05-22T02:34:59.986Z,96142.84
2023-05-22T02:37:28.268Z,96191.03
2023-05-22T02:39:57.123Z,96119.66
2023-05-22T02:42:26.050Z,96196.94
2023-05-22T02:44:55.473Z,96037.78
2023-05-22T02:47:23.788Z,96123.66
2023-05-22T02:49:53.570Z,96159.72
2023-05-22T02:52:23.456Z,96189.16
2023-05-22T02:54:51.771Z,96187.22
2023-05-22T02:57:20.792Z,96180.72
2023-05-22T02:59:49.449Z,96149.78
2023-05-22T03:02:17.819Z,96213.16
2023-05-22T03:04:46.478Z,96149.88
2023-05-22T03:07:17.053Z,96161.94
2023-05-22T03:09:45.388Z,96159.19
2023-05-22T03:12:13.781Z,96193.13
2023-05-22T03:14:42.076Z,96161.78
2023-05-22T03:17:10.454Z,96193.28
2023-05-22T03:19:38.794Z,96168.72
2023-05-22T03:22:07.483Z,96159.44
2023-05-22T03:24:37.536Z,96116.94
2023-05-22T03:27:06.123Z,96170.63
2023-05-22T03:29:39.668Z,96202.44
2023-05-22T03:32:08.666Z,96167.28
2023-05-22T03:34:37.862Z,96196.97
2023-05-22T03:37:10.012Z,96143.16
2023-05-22T03:39:40.484Z,96201.41
2023-05-22T03:42:19.501Z,96213.34
2023-05-22T03:44:49.327Z,96177.66
2023-05-22T03:47:18.361Z,96185.69
2023-05-22T03:49:47.560Z,96171.16
2023-05-22T03:52:15.819Z,96179.31
2023-05-22T03:54:45.956Z,96162.13
2023-05-22T03:57:16.483Z,96189.97
2023-05-22T03:59:44.846Z,96223.44
2023-05-22T04:02:16.982Z,96190.69
2023-05-22T04:05:11.027Z,96225.09
2023-05-22T04:07:39.445Z,96172.59
2023-05-22T04:10:10.278Z,96194.81
2023-05-22T04:12:38.556Z,96170.25
2023-05-22T04:15:09.112Z,96206.97
2023-05-22T04:17:42.195Z,96153.19
2023-05-22T04:20:11.454Z,96172.94
2023-05-22T04:22:41.245Z,96218.19
2023-05-22T04:25:12.456Z,96114.47
2023-05-22T04:27:40.737Z,96224.56
2023-05-22T04:30:10.587Z,96258.06
2023-05-22T04:32:40.884Z,96220.44
2023-05-22T04:35:10.122Z,96191.50
2023-05-22T04:37:41.058Z,96178.53
2023-05-22T04:40:11.991Z,96195.66
2023-05-22T04:42:41.039Z,96224.41
2023-05-22T04:45:10.950Z,96218.19
2023-05-22T04:47:41.576Z,96218.69
2023-05-22T04:50:10.732Z,96198.44
2023-05-22T04:52:38.942Z,96222.56
2023-05-22T04:55:08.582Z,96219.84
2023-05-22T04:57:38.639Z,96206.44
2023-05-22T05:00:09.229Z,96196.34
2023-05-22T05:02:39.168Z,96204.94
2023-05-22T05:05:08.502Z,96177.44
2023-05-22T05:07:39.556Z,96141.38
2023-05-22T05:10:09.058Z,96207.59
2023-05-22T05:12:42.830Z,96193.94
2023-05-22T05:15:12.503Z,96040.72
2023-05-22T05:17:41.169Z,96170.41
2023-05-22T05:20:10.830Z,96200.81
2023-05-22T05:22:40.230Z,96138.56
2023-05-22T05:25:11.564Z,96196.19
2023-05-22T05:27:42.167Z,96211.13
2023-05-22T05:30:11.553Z,96176.75
2023-05-22T05:32:55.607Z,96173.94
2023-05-22T05:35:37.336Z,96213.56
2023-05-22T05:38:10.217Z,96200.50
2023-05-22T05:40:41.902Z,96160.22
2023-05-22T05:43:14.931Z,96189.00
2023-05-22T05:45:43.688Z,96189.56
2023-05-22T05:48:14.046Z,96163.91
2023-05-22T05:50:45.581Z,96203.28
2023-05-22T05:53:14.183Z,96172.03
2023-05-22T05:55:46.962Z,96219.38
2023-05-22T05:58:16.973Z,96199.75
2023-05-22T06:01:11.835Z,96214.63
2023-05-22T06:03:41.444Z,96204.56
2023-05-22T06:06:17.504Z,96170.19
2023-05-22T06:09:18.364Z,96180.81
2023-05-22T06:12:12.569Z,96179.50
2023-05-22T06:14:43.572Z,96186.84
2023-05-22T06:17:12.450Z,96187.19
2023-05-22T06:19:42.812Z,96194.88
2023-05-22T06:22:11.709Z,96202.88
2023-05-22T06:24:42.477Z,96127.59
2023-05-22T06:27:15.509Z,96233.38
2023-05-22T06:29:45.201Z,96216.13
2023-05-22T06:32:13.572Z,96148.56
2023-05-22T06:34:44.816Z,96231.34
2023-05-22T06:37:15.065Z,96206.72
2023-05-22T06:39:45.788Z,96197.38
2023-05-22T06:42:46.586Z,96172.44
2023-05-22T06:45:36.170Z,96177.44
2023-05-22T06:48:27.568Z,96189.09
2023-05-22T06:51:17.901Z,96182.09
2023-05-22T06:53:53.978Z,96200.22
2023-05-22T06:56:29.792Z,96215.13
2023-05-22T06:59:01.300Z,96130.41
2023-05-22T07:01:57.135Z,96198.00
2023-05-22T07:04:36.829Z,96214.66
2023-05-22T07:07:11.334Z,96189.59
2023-05-22T07:09:40.011Z,96208.81
2023-05-22T07:12:10.222Z,96181.84
2023-05-22T07:14:38.565Z,96140.13
2023-05-22T07:17:08.349Z,96150.13
2023-05-22T07:19:42.357Z,96137.22
2023-05-22T07:22:10.666Z,96170.66
2023-05-22T07:24:40.999Z,96213.38
2023-05-22T07:27:11.364Z,96171.31
2023-05-22T07:29:40.284Z,96187.31
2023-05-22T07:32:11.340Z,96177.50
2023-05-22T07:34:39.745Z,96175.50
2023-05-22T07:37:14.844Z,96205.88
2023-05-22T07:39:46.799Z,96213.94
2023-05-22T07:42:16.299Z,96159.81
2023-05-22T07:44:55.178Z,96216.63
2023-05-22T07:47:25.129Z,96194.97
2023-05-22T07:49:54.653Z,96115.41
2023-05-22T07:52:23.910Z,96182.63
2023-05-22T07:54:53.653Z,96179.09
2023-05-22T07:57:23.031Z,96202.38
2023-05-22T07:59:52.532Z,96218.13
2023-05-22T08:02:20.897Z,96173.47
2023-05-22T08:04:51.590Z,96238.91
2023-05-22T08:07:22.035Z,96152.59
2023-05-22T08:09:50.332Z,96180.09
2023-05-22T08:12:18.588Z,96114.91
2023-05-22T08:14:46.897Z,96207.91
2023-05-22T08:17:15.526Z,96197.38
2023-05-22T08:19:44.023Z,96149.56
2023-05-22T08:22:13.710Z,96170.59
2023-05-22T08:24:42.006Z,96162.81
2023-05-22T08:27:11.035Z,96161.88
2023-05-22T08:29:39.338Z,96219.63
2023-05-22T08:32:08.555Z,96143.38
2023-05-22T08:34:36.978Z,96216.94
2023-05-22T08:37:05.846Z,96191.22
2023-05-22T08:39:35.555Z,96188.50
2023-05-22T08:42:04.303Z,96172.94
2023-05-22T08:44:33.042Z,96160.28
2023-05-22T08:47:04.130Z,96196.06
2023-05-22T08:49:32.689Z,96188.50
2023-05-22T08:52:08.654Z,96184.59
2023-05-22T08:54:41.904Z,96169.25
2023-05-22T08:57:10.570Z,96165.53
2023-05-22T08:59:41.050Z,96186.47
2023-05-22T09:02:11.212Z,96209.44
2023-05-22T09:04:41.065Z,96205.78
2023-05-22T09:07:09.571Z,96134.41
2023-05-22T09:09:40.506Z,96097.22
2023-05-22T09:12:11.429Z,96175.44
2023-05-22T09:14:40.538Z,96132.78
2023-05-22T09:17:11.400Z,96189.34
2023-05-22T09:19:44.721Z,96114.69
2023-05-22T09:22:13.638Z,96139.84
2023-05-22T09:24:45.360Z,96135.59
2023-05-22T09:27:13.663Z,96161.97
2023-05-22T09:29:53.411Z,96140.19
2023-05-22T09:32:22.387Z,96088.81
2023-05-22T09:34:51.098Z,96124.94
2023-05-22T09:37:19.828Z,96116.88
2023-05-22T09:39:51.489Z,96159.91
2023-05-22T09:42:20.006Z,96147.50
2023-05-22T09:44:50.800Z,96131.34
2023-05-22T09:47:19.526Z,96117.81
2023-05-22T09:49:48.280Z,96162.63
2023-05-22T09:52:19.411Z,96117.81
2023-05-22T09:54:55.382Z,96152.22
2023-05-22T09:57:26.904Z,96131.59
2023-05-22T09:59:58.453Z,96120.28
2023-05-22T10:02:29.685Z,96025.97
2023-05-22T10:05:02.953Z,96091.47
2023-05-22T10:07:37.710Z,96193.94
2023-05-22T10:10:10.198Z,96144.97
2023-05-22T10:12:44.605Z,96150.91
2023-05-22T10:15:13.870Z,96139.59
2023-05-22T10:17:42.456Z,96085.19
2023-05-22T10:20:12.722Z,96128.56
2023-05-22T10:22:41.656Z,96217.00
2023-05-22T10:25:12.107Z,96157.41
2023-05-22T10:27:41.048Z,96119.41
2023-05-22T10:30:21.885Z,96109.16
2023-05-22T10:33:16.935Z,96123.97
2023-05-22T10:35:51.432Z,96150.13
2023-05-22T10:38:52.588Z,96130.44
2023-05-22T10:41:23.435Z,96125.56
2023-05-22T10:43:52.600Z,96148.97
2023-05-22T10:46:20.889Z,96139.56
2023-05-22T10:48:51.431Z,96113.66
2023-05-22T10:51:22.501Z,96128.69
2023-05-22T10:53:57.928Z,96096.75
2023-05-22T10:56:35.384Z,96141.56
2023-05-22T10:59:07.307Z,96140.66
2023-05-22T11:01:37.854Z,96143.88
2023-05-22T11:04:19.041Z,96109.31
2023-05-22T11:07:05.439Z,96104.38
2023-05-22T11:09:35.112Z,96128.09
2023-05-22T11:12:25.739Z,96122.19
2023-05-22T11:14:56.298Z,96142.19
2023-05-22T11:17:26.991Z,96129.19
2023-05-22T11:20:00.936Z,96127.22
2023-05-22T11:22:37.756Z,96097.22
2023-05-22T11:25:10.923Z,96071.03
2023-05-22T11:27:42.428Z,96114.94
2023-05-22T11:30:12.608Z,96041.19
2023-05-22T11:32:44.845Z,96071.94
2023-05-22T11:35:17.182Z,96073.28
2023-05-22T11:37:46.282Z,96103.75
2023-05-22T11:40:16.824Z,96125.38
2023-05-22T11:42:46.681Z,96117.81
2023-05-22T11:45:15.614Z,96066.47
2023-05-22T11:47:44.785Z,96086.72
2023-05-22T11:50:17.981Z,96092.38
2023-05-22T11:52:51.753Z,96082.97
2023-05-22T11:55:19.931Z,96096.44
2023-05-22T11:57:49.845Z,96090.75
2023-05-22T12:00:19.873Z,96098.63
2023-05-22T12:02:48.540Z,96097.22
2023-05-22T12:05:17.027Z,96044.63
2023-05-22T12:07:45.538Z,96078.59
2023-05-22T12:10:15.610Z,96105.75
2023-05-22T12:12:44.981Z,96098.53
2023-05-22T12:15:15.250Z,96079.97
2023-05-22T12:17:44.545Z,96020.03
2023-05-22T12:20:14.634Z,96034.84
2023-05-22T12:22:43.891Z,96106.28
2023-05-22T12:25:17.417Z,96065.75
2023-05-22T12:27:46.259Z,96058.22
2023-05-22T12:30:17.563Z,96101.97
2023-05-22T12:32:49.944Z,96100.84
2023-05-22T12:35:19.630Z,96004.44
2023-05-22T12:37:51.619Z,96077.81
2023-05-22T12:40:20.086Z,96046.78
2023-05-22T12:42:49.703Z,96063.00
2023-05-22T12:45:19.591Z,96129.19
2023-05-22T12:47:48.153Z,95966.19
2023-05-22T12:50:16.658Z,96071.97
2023-05-22T12:52:44.914Z,96061.97
2023-05-22T12:55:13.175Z,95961.56
2023-05-22T12:57:41.374Z,96055.88
2023-05-22T13:00:11.224Z,95997.78
2023-05-22T13:02:41.213Z,96085.19
2023-05-22T13:05:09.941Z,96082.53
2023-05-22T13:07:38.500Z,96026.56
2023-05-22T13:10:08.407Z,96046.78
2023-05-22T13:12:36.718Z,96044.13
2023-05-22T13:15:05.774Z,96009.16
2023-05-22T13:17:34.080Z,96036.06
2023-05-22T13:20:04.426Z,96023.13
2023-05-22T13:22:32.819Z,96052.06
2023-05-22T13:25:01.341Z,96006.09
2023-05-22T13:27:31.386Z,96058.16
2023-05-22T13:30:01.818Z,96067.56
2023-05-22T13:32:30.191Z,96016.09
2023-05-22T13:34:58.481Z,96022.72
2023-05-22T13:37:28.116Z,96057.44
2023-05-22T13:39:56.564Z,96040.66
2023-05-22T13:42:24.899Z,96065.41
2023-05-22T13:44:53.405Z,96060.88
2023-05-22T13:47:23.000Z,95979.41
2023-05-22T13:49:51.544Z,96036.81
2023-05-22T13:52:19.918Z,95975.66
2023-05-22T13:54:50.261Z,96041.88
2023-05-22T13:57:18.548Z,96025.38
2023-05-22T13:59:46.814Z,96046.69
2023-05-22T14:02:15.196Z,95982.94
2023-05-22T14:04:43.500Z,96062.09
2023-05-22T14:07:12.620Z,96041.63
2023-05-22T14:09:40.997Z,96020.78
2023-05-22T14:12:10.757Z,96007.72
2023-05-22T14:14:39.114Z,96060.31
2023-05-22T14:17:08.802Z,95987.13
2023-05-22T14:19:37.471Z,95995.09
2023-05-22T14:22:06.699Z,96015.31
2023-05-22T14:24:35.055Z,96008.00
2023-05-22T14:27:03.405Z,96039.06
2023-05-22T14:29:33.188Z,96020.59
2023-05-22T14:32:05.177Z,96015.00
2023-05-22T14:34:33.674Z,96028.81
2023-05-22T14:37:02.035Z,96017.03
2023-05-22T14:39:30.563Z,96030.25
2023-05-22T14:41:58.782Z,96051.34
2023-05-22T14:44:27.069Z,95967.63
2023-05-22T14:46:56.698Z,96032.38
2023-05-22T14:49:25.079Z,96034.91
2023-05-22T14:51:54.560Z,96018.28
2023-05-22T14:54:23.835Z,96027.16
2023-05-22T14:56:52.153Z,95986.78
2023-05-22T14:59:21.052Z,96077.00
2023-05-22T15:01:50.490Z,96011.22
2023-05-22T15:04:20.790Z,95758.38
2023-05-22T15:06:49.313Z,95995.47
2023-05-22T15:09:17.660Z,96027.06
2023-05-22T15:11:49.123Z,95977.81
2023-05-22T15:14:17.715Z,96059.56
2023-05-22T15:16:46.463Z,96054.25
2023-05-22T15:19:14.766Z,96032.75
2023-05-22T15:21:44.557Z,96036.69
2023-05-22T15:24:13.119Z,96066.97
2023-05-22T15:26:41.485Z,95984.72
2023-05-22T15:29:09.814Z,96034.34
2023-05-22T15:31:38.224Z,96131.84
2023-05-22T15:34:06.612Z,96038.56
2023-05-22T15:36:37.444Z,96035.59
2023-05-22T15:39:07.212Z,96049.47
2023-05-22T15:41:36.286Z,96020.22
2023-05-22T15:44:04.660Z,96030.56
2023-05-22T15:46:33.134Z,96020.25
2023-05-22T15:49:01.465Z,95981.47
2023-05-22T15:51:30.245Z,95987.72
2023-05-22T15:53:58.767Z,96031.22
2023-05-22T15:56:28.372Z,96050.22
2023-05-22T15:58:56.636Z,95958.25
2023-05-22T16:01:24.857Z,96023.25
2023-05-22T16:04:02.376Z,96024.38
2023-05-22T16:06:30.726Z,96017.34
2023-05-22T16:08:59.218Z,96015.16
2023-05-22T16:11:29.059Z,96034.38
2023-05-22T16:13:57.570Z,96030.81
2023-05-22T16:16:25.975Z,95995.28
2023-05-22T16:18:54.303Z,96020.13
2023-05-22T16:21:22.818Z,96075.53
2023-05-22T16:23:51.137Z,96030.03
2023-05-22T16:26:19.593Z,96037.63
2023-05-22T16:28:49.164Z,96030.09
2023-05-22T16:31:19.772Z,95901.97
2023-05-22T16:33:48.082Z,96067.91
2023-05-22T16:36:16.330Z,96049.00
2023-05-22T16:38:44.591Z,96037.44
2023-05-22T16:41:12.904Z,96039.88
2023-05-22T16:43:41.280Z,96002.94
2023-05-22T16:46:10.948Z,96022.66
2023-05-22T16:48:39.268Z,96023.44
2023-05-22T16:51:07.778Z,96031.25
2023-05-22T16:53:38.192Z,96028.81
2023-05-22T16:56:07.238Z,96019.88
2023-05-22T16:58:35.733Z,96012.00
2023-05-22T17:01:06.309Z,96095.16
2023-05-22T17:03:36.351Z,96003.66
2023-05-22T17:06:05.856Z,96066.88
2023-05-22T17:08:34.160Z,96019.75
2023-05-22T17:11:02.418Z,96025.66
2023-05-22T17:13:31.011Z,96030.03
2023-05-22T17:15:59.443Z,96071.19
2023-05-22T17:18:27.729Z,96032.72
2023-05-22T17:20:57.491Z,96030.03
2023-05-22T17:23:25.822Z,96025.78
2023-05-22T17:25:55.203Z,96158.44
2023-05-22T17:28:23.462Z,96053.81
2023-05-22T17:30:51.853Z,95983.84
2023-05-22T17:33:20.237Z,96001.38
2023-05-22T17:35:48.668Z,96048.78
2023-05-22T17:38:18.260Z,96007.56
2023-05-22T17:40:46.536Z,96025.88
2023-05-22T17:43:16.654Z,96010.50
2023-05-22T17:45:49.641Z,96059.00
2023-05-22T17:48:21.527Z,96019.69
2023-05-22T17:50:49.798Z,96030.72
2023-05-22T17:53:20.634Z,96069.44
2023-05-22T17:55:52.298Z,96039.72
2023-05-22T17:58:21.639Z,96091.03
2023-05-22T18:00:50.049Z,96057.84
2023-05-22T18:03:20.841Z,96005.13
2023-05-22T18:05:49.499Z,96090.06
2023-05-22T18:08:21.258Z,96087.84
2023-05-22T18:10:49.801Z,96067.31
2023-05-22T18:13:19.285Z,96103.09
2023-05-22T18:15:49.006Z,96091.13
2023-05-22T18:18:17.552Z,96102.66
2023-05-22T18:20:46.196Z,96168.38
2023-05-22T18:23:14.660Z,96141.16
2023-05-22T18:25:44.300Z,96123.34
2023-05-22T18:28:12.510Z,96110.72
2023-05-22T18:30:40.985Z,96095.22
2023-05-22T18:33:09.506Z,96079.31
2023-05-22T18:35:37.844Z,96100.59
2023-05-22T18:38:06.475Z,96088.25
2023-05-22T18:40:34.716Z,96102.66
2023-05-22T18:43:04.291Z,96106.13
2023-05-22T18:45:32.584Z,96126.78
2023-05-22T18:48:00.886Z,96123.59
2023-05-22T18:50:29.313Z,96156.06
2023-05-22T18:52:57.619Z,96164.19
2023-05-22T18:55:25.881Z,96181.88
2023-05-22T18:57:54.134Z,96107.00
2023-05-22T19:00:23.968Z,96160.75
2023-05-22T19:02:52.269Z,96164.28
2023-05-22T19:05:21.589Z,96139.38
2023-05-22T19:07:50.334Z,96203.72
2023-05-22T19:10:19.247Z,96128.16
2023-05-22T19:12:47.511Z,96130.69
2023-05-22T19:15:15.804Z,96153.63
2023-05-22T19:17:45.441Z,96117.44
2023-05-22T19:20:13.831Z,96182.63
2023-05-22T19:22:42.148Z,96212.19
2023-05-22T19:25:11.067Z,96210.66
2023-05-22T19:27:39.561Z,96165.91
2023-05-22T19:30:09.568Z,96158.22
2023-05-22T19:32:37.920Z,96139.13
2023-05-22T19:35:08.708Z,96156.25
2023-05-22T19:37:36.963Z,96151.66
2023-05-22T19:40:06.254Z,96145.19
2023-05-22T19:42:34.532Z,96140.53
2023-05-22T19:45:03.486Z,96107.81
2023-05-22T19:47:31.711Z,96117.84
2023-05-22T19:49:59.947Z,96143.16
2023-05-22T19:52:29.584Z,96112.00
2023-05-22T19:54:57.837Z,96125.03
2023-05-22T19:57:27.144Z,96096.19
2023-05-22T19:59:55.985Z,96106.75
2023-05-22T20:02:24.262Z,96113.13
2023-05-22T20:04:54.730Z,96118.56
2023-05-22T20:07:23.385Z,96102.19
2023-05-22T20:09:52.979Z,96100.94
2023-05-22T20:12:21.315Z,96088.31
2023-05-22T20:14:49.556Z,96131.09
2023-05-22T20:17:22.330Z,96112.19
2023-05-22T20:19:50.679Z,96086.13
2023-05-22T20:22:18.941Z,96131.97
2023-05-22T20:24:47.698Z,96118.97
2023-05-22T20:27:17.268Z,96132.06
2023-05-22T20:29:45.498Z,96164.25
2023-05-22T20:32:13.770Z,96177.28
2023-05-22T20:34:42.057Z,96160.47
2023-05-22T20:37:10.251Z,96173.66
2023-05-22T20:39:38.555Z,96162.09
2023-05-22T20:42:07.758Z,96145.91
2023-05-22T20:44:38.267Z,96084.31
2023-05-22T20:47:07.192Z,96181.25
2023-05-22T20:49:35.922Z,96175.69
2023-05-22T20:52:04.574Z,96188.72
2023-05-22T20:54:34.764Z,96098.34
2023-05-22T20:57:03.529Z,96153.38
2023-05-22T20:59:32.137Z,96205.88
2023-05-22T21:02:01.779Z,96195.00
2023-05-22T21:04:30.214Z,96175.25
2023-05-22T21:07:04.922Z,96116.66
2023-05-22T21:09:33.694Z,96178.69
2023-05-22T21:12:01.984Z,96193.69
2023-05-22T21:14:30.302Z,96165.94
2023-05-22T21:16:59.072Z,96183.56
2023-05-22T21:19:28.761Z,96181.81
2023-05-22T21:21:57.160Z,96188.78
2023-05-22T21:24:25.456Z,96254.41
2023-05-22T21:26:53.788Z,96243.75
2023-05-22T21:29:22.076Z,96211.25
2023-05-22T21:31:50.467Z,96253.16
2023-05-22T21:34:18.869Z,96177.09
2023-05-22T21:36:48.616Z,96181.41
2023-05-22T21:39:17.083Z,96211.13
2023-05-22T21:41:45.675Z,96216.00
2023-05-22T21:44:14.318Z,96228.75
2023-05-22T21:46:42.634Z,96179.16
2023-05-22T21:49:10.870Z,96172.66
2023-05-22T21:51:39.066Z,96207.91
2023-05-22T21:54:08.742Z,96198.47
2023-05-22T21:56:38.532Z,96169.47
2023-05-22T21:59:06.827Z,96184.53
2023-05-22T22:01:35.073Z,96209.25
2023-05-22T22:04:07.991Z,96180.84
2023-05-22T22:06:38.501Z,96193.38
2023-05-22T22:09:09.190Z,96236.25
2023-05-22T22:11:37.424Z,96251.84
2023-05-22T22:14:07.247Z,96206.41
2023-05-22T22:16:36.364Z,96232.97
2023-05-22T22:19:05.322Z,96236.09
2023-05-22T22:21:34.399Z,96201.28
2023-05-22T22:24:02.693Z,96228.41
2023-05-22T22:26:33.111Z,96230.03
2023-05-22T22:29:01.419Z,96247.78
2023-05-22T22:31:29.668Z,96240.38
2023-05-22T22:33:57.976Z,96224.91
2023-05-22T22:36:26.384Z,96303.69
2023-05-22T22:38:54.615Z,96229.03
2023-05-22T22:41:22.814Z,96239.19
2023-05-22T22:43:54.575Z,96228.47
2023-05-22T22:46:23.125Z,96245.06
2023-05-22T22:48:51.828Z,96250.63
2023-05-22T22:51:20.168Z,96214.69
2023-05-22T22:53:48.421Z,96225.34
2023-05-22T22:56:16.930Z,96250.19
2023-05-22T22:58:45.171Z,96253.66
2023-05-22T23:01:14.952Z,96264.38
2023-05-22T23:17:18.752Z,96240.03
2023-05-22T23:19:46.830Z,96260.63
2023-05-22T23:22:15.098Z,96267.22
2023-05-22T23:24:43.722Z,96288.19
2023-05-22T23:27:11.945Z,96266.41
2023-05-22T23:29:40.176Z,96234.03
2023-05-22T23:32:08.409Z,96255.16
2023-05-22T23:34:37.973Z,96260.75
2023-05-22T23:37:06.468Z,96260.75
2023-05-22T23:39:34.739Z,96269.97
2023-05-22T23:42:03.034Z,96208.78
2023-05-22T23:44:31.428Z,96295.50
2023-05-22T23:46:59.932Z,96248.22
2023-05-22T23:49:28.233Z,96256.75
2023-05-22T23:51:57.781Z,96307.47
2023-05-22T23:54:26.046Z,96285.41
2023-05-22T23:56:54.432Z,96238.28
2023-05-22T23:59:22.913Z,96189.22
